KAMG/AMG METAR and TAF weather

Enter ICAO airport designator
Station Type Date Time Source
KAMG METAR 2024/04/17 17:53 UTC NOAA

KAMG 171753Z AUTO 21006KT 10SM CLR 29/13 A3012 RMK AO2 SLP198 T02890133 10289 20172 58015


Station Type Date Time Source
KAMG Decoded METAR 2024/04/17 17:53 UTC NOAA

ALMA BACON COUNTY AIRPORT, GA, United States (KAMG) 31-32N 82-30W 59M
Apr 17, 2024 - 01:53 PM EDT / 2024.04.17 1753 UTC
Wind: from the SSW (210 degrees) at 7 MPH (6 KT):0
Visibility: 10 mile(s):0
Sky conditions: clear
Temperature: 84.0 F (28.9 C)
Dew Point: 55.9 F (13.3 C)
Relative Humidity: 38%
Pressure (altimeter): 30.12 in. Hg (1019 hPa)
Pressure tendency: 0.04 inches (1.5 hPa) lower than three hours ago
ob: KAMG 171753Z AUTO 21006KT 10SM CLR 29/13 A3012 RMK AO2 SLP198 T02890133 10289 20172 58015
cycle: 18

Station Type Date Time Source
KAMG TAF UTC NOAA

Error!

Example: see airport list